sensor_id;sensor_type;location;lat;lon;timestamp;temperature;humidity
70708;SHT30;58277;47.316;18.908;2023-02-08T00:01:45;-3.96;79.86
70708;SHT30;58277;47.316;18.908;2023-02-08T00:04:08;-3.97;80.31
70708;SHT30;58277;47.316;18.908;2023-02-08T00:06:30;-3.79;79.41
70708;SHT30;58277;47.316;18.908;2023-02-08T00:08:53;-3.65;78.61
70708;SHT30;58277;47.316;18.908;2023-02-08T00:11:16;-3.43;78.30
70708;SHT30;58277;47.316;18.908;2023-02-08T00:13:40;-3.31;77.38
70708;SHT30;58277;47.316;18.908;2023-02-08T00:16:04;-3.16;77.23
70708;SHT30;58277;47.316;18.908;2023-02-08T00:18:27;-3.08;76.73
70708;SHT30;58277;47.316;18.908;2023-02-08T00:20:50;-2.97;76.32
70708;SHT30;58277;47.316;18.908;2023-02-08T00:23:13;-2.85;76.24
70708;SHT30;58277;47.316;18.908;2023-02-08T00:25:36;-2.76;75.94
70708;SHT30;58277;47.316;18.908;2023-02-08T00:27:59;-2.61;75.19
70708;SHT30;58277;47.316;18.908;2023-02-08T00:30:23;-2.61;75.42
70708;SHT30;58277;47.316;18.908;2023-02-08T00:32:46;-2.54;74.85
70708;SHT30;58277;47.316;18.908;2023-02-08T00:35:09;-2.41;74.21
70708;SHT30;58277;47.316;18.908;2023-02-08T00:37:31;-2.41;74.26
70708;SHT30;58277;47.316;18.908;2023-02-08T00:39:54;-2.36;73.92
70708;SHT30;58277;47.316;18.908;2023-02-08T00:42:18;-2.33;74.45
70708;SHT30;58277;47.316;18.908;2023-02-08T00:44:41;-2.26;73.92
70708;SHT30;58277;47.316;18.908;2023-02-08T00:47:03;-2.17;73.55
70708;SHT30;58277;47.316;18.908;2023-02-08T00:49:26;-2.15;74.12
70708;SHT30;58277;47.316;18.908;2023-02-08T00:51:49;-2.00;72.88
70708;SHT30;58277;47.316;18.908;2023-02-08T00:54:17;-2.01;72.65
70708;SHT30;58277;47.316;18.908;2023-02-08T00:56:40;-1.99;72.40
70708;SHT30;58277;47.316;18.908;2023-02-08T00:59:03;-2.03;73.05
70708;SHT30;58277;47.316;18.908;2023-02-08T01:01:25;-1.91;72.83
70708;SHT30;58277;47.316;18.908;2023-02-08T01:03:48;-1.90;72.89
70708;SHT30;58277;47.316;18.908;2023-02-08T01:06:15;-2.01;73.01
70708;SHT30;58277;47.316;18.908;2023-02-08T01:08:39;-1.91;72.97
70708;SHT30;58277;47.316;18.908;2023-02-08T01:11:08;-1.89;72.76
70708;SHT30;58277;47.316;18.908;2023-02-08T01:13:33;-1.85;73.54
70708;SHT30;58277;47.316;18.908;2023-02-08T01:16:05;-1.86;72.80
70708;SHT30;58277;47.316;18.908;2023-02-08T01:18:28;-1.83;72.86
70708;SHT30;58277;47.316;18.908;2023-02-08T01:20:51;-1.73;72.52
70708;SHT30;58277;47.316;18.908;2023-02-08T01:23:14;-1.82;72.15
70708;SHT30;58277;47.316;18.908;2023-02-08T01:25:36;-1.78;71.91
70708;SHT30;58277;47.316;18.908;2023-02-08T01:28:00;-1.73;72.11
70708;SHT30;58277;47.316;18.908;2023-02-08T01:30:22;-1.61;72.03
70708;SHT30;58277;47.316;18.908;2023-02-08T01:32:45;-1.75;72.42
70708;SHT30;58277;47.316;18.908;2023-02-08T01:35:08;-1.68;72.45
70708;SHT30;58277;47.316;18.908;2023-02-08T01:37:32;-1.65;72.19
70708;SHT30;58277;47.316;18.908;2023-02-08T01:39:55;-1.55;72.22
70708;SHT30;58277;47.316;18.908;2023-02-08T01:42:18;-1.42;71.90
70708;SHT30;58277;47.316;18.908;2023-02-08T01:47:37;-1.41;71.54
70708;SHT30;58277;47.316;18.908;2023-02-08T01:50:00;-1.37;71.71
70708;SHT30;58277;47.316;18.908;2023-02-08T01:52:25;-1.27;71.38
70708;SHT30;58277;47.316;18.908;2023-02-08T01:55:01;-1.28;71.91
70708;SHT30;58277;47.316;18.908;2023-02-08T01:57:25;-1.28;71.29
70708;SHT30;58277;47.316;18.908;2023-02-08T01:59:52;-1.28;71.57
70708;SHT30;58277;47.316;18.908;2023-02-08T02:02:18;-1.27;71.69
70708;SHT30;58277;47.316;18.908;2023-02-08T02:04:41;-1.25;71.87
70708;SHT30;58277;47.316;18.908;2023-02-08T02:07:05;-1.50;72.30
70708;SHT30;58277;47.316;18.908;2023-02-08T02:09:35;-1.47;72.57
70708;SHT30;58277;47.316;18.908;2023-02-08T02:12:13;-1.47;72.40
70708;SHT30;58277;47.316;18.908;2023-02-08T02:14:38;-1.59;72.88
70708;SHT30;58277;47.316;18.908;2023-02-08T02:17:01;-1.68;72.98
70708;SHT30;58277;47.316;18.908;2023-02-08T02:40:54;-1.25;72.59
70708;SHT30;58277;47.316;18.908;2023-02-08T02:43:25;-1.25;72.83
70708;SHT30;58277;47.316;18.908;2023-02-08T02:48:41;-1.04;71.91
70708;SHT30;58277;47.316;18.908;2023-02-08T02:53:59;-1.10;71.63
70708;SHT30;58277;47.316;18.908;2023-02-08T02:56:34;-1.03;71.82
70708;SHT30;58277;47.316;18.908;2023-02-08T02:59:04;-1.07;71.97
70708;SHT30;58277;47.316;18.908;2023-02-08T03:01:27;-0.97;71.60
70708;SHT30;58277;47.316;18.908;2023-02-08T03:03:52;-0.93;71.68
70708;SHT30;58277;47.316;18.908;2023-02-08T03:06:27;-0.85;71.97
70708;SHT30;58277;47.316;18.908;2023-02-08T03:11:35;-0.99;72.15
70708;SHT30;58277;47.316;18.908;2023-02-08T03:14:28;-1.08;72.54
70708;SHT30;58277;47.316;18.908;2023-02-08T03:20:06;-1.10;73.28
70708;SHT30;58277;47.316;18.908;2023-02-08T03:25:05;-0.83;72.07
70708;SHT30;58277;47.316;18.908;2023-02-08T03:27:34;-0.94;72.34
70708;SHT30;58277;47.316;18.908;2023-02-08T03:30:12;-0.96;72.41
70708;SHT30;58277;47.316;18.908;2023-02-08T03:35:43;-1.00;73.00
70708;SHT30;58277;47.316;18.908;2023-02-08T03:38:16;-0.94;72.68
70708;SHT30;58277;47.316;18.908;2023-02-08T03:40:44;-1.07;72.89
70708;SHT30;58277;47.316;18.908;2023-02-08T03:43:47;-1.04;73.04
70708;SHT30;58277;47.316;18.908;2023-02-08T03:46:17;-0.99;73.10
70708;SHT30;58277;47.316;18.908;2023-02-08T03:48:48;-0.99;73.01
70708;SHT30;58277;47.316;18.908;2023-02-08T03:51:14;-1.08;73.17
70708;SHT30;58277;47.316;18.908;2023-02-08T03:53:40;-1.00;73.08
70708;SHT30;58277;47.316;18.908;2023-02-08T03:56:09;-0.90;72.75
70708;SHT30;58277;47.316;18.908;2023-02-08T03:58:39;-0.82;72.47
70708;SHT30;58277;47.316;18.908;2023-02-08T04:01:16;-0.86;72.54
70708;SHT30;58277;47.316;18.908;2023-02-08T04:03:42;-0.85;71.64
70708;SHT30;58277;47.316;18.908;2023-02-08T04:06:05;-0.68;71.47
70708;SHT30;58277;47.316;18.908;2023-02-08T04:08:28;-0.68;71.21
70708;SHT30;58277;47.316;18.908;2023-02-08T04:10:51;-0.59;71.27
70708;SHT30;58277;47.316;18.908;2023-02-08T04:13:14;-0.52;70.03
70708;SHT30;58277;47.316;18.908;2023-02-08T04:15:37;-0.49;70.16
70708;SHT30;58277;47.316;18.908;2023-02-08T04:18:00;-0.49;69.97
70708;SHT30;58277;47.316;18.908;2023-02-08T04:20:23;-0.54;70.26
70708;SHT30;58277;47.316;18.908;2023-02-08T04:22:46;-0.38;70.57
70708;SHT30;58277;47.316;18.908;2023-02-08T04:25:08;-0.45;70.96
70708;SHT30;58277;47.316;18.908;2023-02-08T04:27:31;-0.48;71.62
70708;SHT30;58277;47.316;18.908;2023-02-08T04:29:56;-0.46;71.65
70708;SHT30;58277;47.316;18.908;2023-02-08T04:32:19;-0.46;71.32
70708;SHT30;58277;47.316;18.908;2023-02-08T04:34:42;-0.59;71.60
70708;SHT30;58277;47.316;18.908;2023-02-08T04:37:05;-0.55;71.92
70708;SHT30;58277;47.316;18.908;2023-02-08T04:39:28;-0.38;71.24
70708;SHT30;58277;47.316;18.908;2023-02-08T04:41:51;-0.35;70.84
70708;SHT30;58277;47.316;18.908;2023-02-08T04:44:14;-0.35;70.81
70708;SHT30;58277;47.316;18.908;2023-02-08T04:46:36;-0.31;70.42
70708;SHT30;58277;47.316;18.908;2023-02-08T04:48:59;-0.28;70.78
70708;SHT30;58277;47.316;18.908;2023-02-08T04:51:22;-0.18;70.20
70708;SHT30;58277;47.316;18.908;2023-02-08T04:53:45;-0.18;69.65
70708;SHT30;58277;47.316;18.908;2023-02-08T04:56:07;-0.13;70.03
70708;SHT30;58277;47.316;18.908;2023-02-08T04:58:30;-0.24;69.68
70708;SHT30;58277;47.316;18.908;2023-02-08T05:00:53;-0.18;69.60
70708;SHT30;58277;47.316;18.908;2023-02-08T05:03:15;-0.35;70.55
70708;SHT30;58277;47.316;18.908;2023-02-08T05:05:38;-0.34;70.84
70708;SHT30;58277;47.316;18.908;2023-02-08T05:08:01;-0.28;70.34
70708;SHT30;58277;47.316;18.908;2023-02-08T05:10:24;-0.17;70.30
70708;SHT30;58277;47.316;18.908;2023-02-08T05:12:47;-0.08;69.32
70708;SHT30;58277;47.316;18.908;2023-02-08T05:15:10;-0.22;68.60
70708;SHT30;58277;47.316;18.908;2023-02-08T05:17:33;-0.29;68.74
70708;SHT30;58277;47.316;18.908;2023-02-08T05:19:56;-0.34;68.99
70708;SHT30;58277;47.316;18.908;2023-02-08T05:22:18;-0.42;69.55
70708;SHT30;58277;47.316;18.908;2023-02-08T05:24:41;-0.28;69.40
70708;SHT30;58277;47.316;18.908;2023-02-08T05:27:04;-0.29;69.09
70708;SHT30;58277;47.316;18.908;2023-02-08T05:29:27;-0.29;69.10
70708;SHT30;58277;47.316;18.908;2023-02-08T05:31:49;-0.29;69.19
70708;SHT30;58277;47.316;18.908;2023-02-08T05:34:12;-0.34;69.02
70708;SHT30;58277;47.316;18.908;2023-02-08T05:36:35;-0.28;68.91
70708;SHT30;58277;47.316;18.908;2023-02-08T05:38:58;-0.15;68.00
70708;SHT30;58277;47.316;18.908;2023-02-08T05:41:21;-0.10;67.70
70708;SHT30;58277;47.316;18.908;2023-02-08T05:43:44;-0.17;67.86
70708;SHT30;58277;47.316;18.908;2023-02-08T05:46:07;-0.28;68.32
70708;SHT30;58277;47.316;18.908;2023-02-08T05:48:30;-0.41;68.09
70708;SHT30;58277;47.316;18.908;2023-02-08T05:50:53;-0.58;69.08
70708;SHT30;58277;47.316;18.908;2023-02-08T05:53:16;-0.76;69.76
70708;SHT30;58277;47.316;18.908;2023-02-08T05:55:38;-0.75;69.24
70708;SHT30;58277;47.316;18.908;2023-02-08T05:58:01;-0.90;69.27
70708;SHT30;58277;47.316;18.908;2023-02-08T06:00:24;-1.00;69.55
70708;SHT30;58277;47.316;18.908;2023-02-08T06:02:47;-0.96;69.45
70708;SHT30;58277;47.316;18.908;2023-02-08T06:05:13;-1.03;69.36
70708;SHT30;58277;47.316;18.908;2023-02-08T06:07:36;-0.94;69.09
70708;SHT30;58277;47.316;18.908;2023-02-08T06:09:58;-0.96;69.21
70708;SHT30;58277;47.316;18.908;2023-02-08T06:12:21;-0.94;69.32
70708;SHT30;58277;47.316;18.908;2023-02-08T06:14:44;-0.82;69.43
70708;SHT30;58277;47.316;18.908;2023-02-08T06:17:06;-0.79;69.58
70708;SHT30;58277;47.316;18.908;2023-02-08T06:19:29;-0.66;69.02
70708;SHT30;58277;47.316;18.908;2023-02-08T06:21:52;-0.72;68.31
70708;SHT30;58277;47.316;18.908;2023-02-08T06:24:14;-0.70;68.49
70708;SHT30;58277;47.316;18.908;2023-02-08T06:26:38;-0.70;68.79
70708;SHT30;58277;47.316;18.908;2023-02-08T06:29:02;-0.69;68.10
70708;SHT30;58277;47.316;18.908;2023-02-08T06:31:25;-0.66;68.00
70708;SHT30;58277;47.316;18.908;2023-02-08T06:33:48;-0.62;68.47
70708;SHT30;58277;47.316;18.908;2023-02-08T06:36:10;-0.49;68.24
70708;SHT30;58277;47.316;18.908;2023-02-08T06:38:33;-0.39;68.17
70708;SHT30;58277;47.316;18.908;2023-02-08T06:40:56;-0.48;67.91
70708;SHT30;58277;47.316;18.908;2023-02-08T06:43:19;-0.45;66.88
70708;SHT30;58277;47.316;18.908;2023-02-08T06:45:45;-0.38;67.46
70708;SHT30;58277;47.316;18.908;2023-02-08T06:48:08;-0.22;66.21
70708;SHT30;58277;47.316;18.908;2023-02-08T06:50:31;-0.11;65.53
70708;SHT30;58277;47.316;18.908;2023-02-08T06:52:54;0.06;65.05
70708;SHT30;58277;47.316;18.908;2023-02-08T06:55:17;0.25;64.74
70708;SHT30;58277;47.316;18.908;2023-02-08T06:57:40;0.47;63.88
70708;SHT30;58277;47.316;18.908;2023-02-08T07:00:04;0.95;62.64
70708;SHT30;58277;47.316;18.908;2023-02-08T07:02:29;1.23;60.95
70708;SHT30;58277;47.316;18.908;2023-02-08T07:04:52;1.37;61.07
70708;SHT30;58277;47.316;18.908;2023-02-08T07:07:16;1.62;59.62
70708;SHT30;58277;47.316;18.908;2023-02-08T07:09:41;2.10;58.02
70708;SHT30;58277;47.316;18.908;2023-02-08T07:12:04;2.06;58.11
70708;SHT30;58277;47.316;18.908;2023-02-08T07:14:27;2.61;56.21
70708;SHT30;58277;47.316;18.908;2023-02-08T07:16:50;2.34;56.33
70708;SHT30;58277;47.316;18.908;2023-02-08T07:19:13;2.42;56.20
70708;SHT30;58277;47.316;18.908;2023-02-08T07:21:36;2.58;55.49
70708;SHT30;58277;47.316;18.908;2023-02-08T07:23:58;2.38;56.67
70708;SHT30;58277;47.316;18.908;2023-02-08T07:26:21;2.71;55.84
70708;SHT30;58277;47.316;18.908;2023-02-08T07:28:44;2.03;57.11
70708;SHT30;58277;47.316;18.908;2023-02-08T07:31:08;2.60;55.86
70708;SHT30;58277;47.316;18.908;2023-02-08T07:33:32;2.34;56.76
70708;SHT30;58277;47.316;18.908;2023-02-08T07:35:54;1.95;58.33
70708;SHT30;58277;47.316;18.908;2023-02-08T07:38:18;1.64;58.92
70708;SHT30;58277;47.316;18.908;2023-02-08T07:40:42;1.54;59.81
70708;SHT30;58277;47.316;18.908;2023-02-08T07:43:05;1.65;59.70
70708;SHT30;58277;47.316;18.908;2023-02-08T07:45:37;1.58;59.66
70708;SHT30;58277;47.316;18.908;2023-02-08T07:48:03;1.68;60.07
70708;SHT30;58277;47.316;18.908;2023-02-08T07:50:26;1.81;59.61
70708;SHT30;58277;47.316;18.908;2023-02-08T07:52:49;2.37;57.75
70708;SHT30;58277;47.316;18.908;2023-02-08T07:55:13;2.30;57.43
70708;SHT30;58277;47.316;18.908;2023-02-08T07:57:39;1.91;58.38
70708;SHT30;58277;47.316;18.908;2023-02-08T08:00:03;2.06;58.98
70708;SHT30;58277;47.316;18.908;2023-02-08T08:02:38;2.19;58.62
70708;SHT30;58277;47.316;18.908;2023-02-08T08:05:01;2.10;59.37
70708;SHT30;58277;47.316;18.908;2023-02-08T08:07:23;2.00;58.70
70708;SHT30;58277;47.316;18.908;2023-02-08T08:09:46;1.86;59.67
70708;SHT30;58277;47.316;18.908;2023-02-08T08:12:09;1.59;59.96
70708;SHT30;58277;47.316;18.908;2023-02-08T08:14:32;1.52;60.47
70708;SHT30;58277;47.316;18.908;2023-02-08T08:16:55;1.35;61.11
70708;SHT30;58277;47.316;18.908;2023-02-08T08:19:17;1.23;61.65
70708;SHT30;58277;47.316;18.908;2023-02-08T08:21:40;1.24;61.90
70708;SHT30;58277;47.316;18.908;2023-02-08T08:24:03;1.24;61.94
70708;SHT30;58277;47.316;18.908;2023-02-08T08:26:26;1.33;62.14
70708;SHT30;58277;47.316;18.908;2023-02-08T08:28:49;1.38;62.18
70708;SHT30;58277;47.316;18.908;2023-02-08T08:31:17;1.44;61.84
70708;SHT30;58277;47.316;18.908;2023-02-08T08:33:40;1.40;62.12
70708;SHT30;58277;47.316;18.908;2023-02-08T08:36:03;1.34;62.60
70708;SHT30;58277;47.316;18.908;2023-02-08T08:38:26;1.34;62.60
70708;SHT30;58277;47.316;18.908;2023-02-08T08:40:48;1.47;62.43
70708;SHT30;58277;47.316;18.908;2023-02-08T08:43:11;1.45;62.21
70708;SHT30;58277;47.316;18.908;2023-02-08T08:45:34;1.58;62.72
70708;SHT30;58277;47.316;18.908;2023-02-08T08:47:57;1.59;62.29
70708;SHT30;58277;47.316;18.908;2023-02-08T08:50:22;1.50;62.42
70708;SHT30;58277;47.316;18.908;2023-02-08T08:52:44;1.45;62.89
70708;SHT30;58277;47.316;18.908;2023-02-08T08:55:07;1.58;62.83
70708;SHT30;58277;47.316;18.908;2023-02-08T08:57:30;1.52;62.95
70708;SHT30;58277;47.316;18.908;2023-02-08T08:59:54;1.56;63.47
70708;SHT30;58277;47.316;18.908;2023-02-08T09:02:17;1.68;63.19
70708;SHT30;58277;47.316;18.908;2023-02-08T09:04:40;1.69;62.73
70708;SHT30;58277;47.316;18.908;2023-02-08T09:07:03;1.59;63.13
70708;SHT30;58277;47.316;18.908;2023-02-08T09:09:25;1.73;63.13
70708;SHT30;58277;47.316;18.908;2023-02-08T09:11:48;1.66;63.20
70708;SHT30;58277;47.316;18.908;2023-02-08T09:14:12;1.75;63.24
70708;SHT30;58277;47.316;18.908;2023-02-08T09:16:35;1.71;63.08
70708;SHT30;58277;47.316;18.908;2023-02-08T09:19:02;1.72;63.41
70708;SHT30;58277;47.316;18.908;2023-02-08T09:21:25;1.79;63.19
70708;SHT30;58277;47.316;18.908;2023-02-08T09:23:48;1.93;63.16
70708;SHT30;58277;47.316;18.908;2023-02-08T09:26:13;2.02;62.88
70708;SHT30;58277;47.316;18.908;2023-02-08T09:28:37;2.02;62.88
70708;SHT30;58277;47.316;18.908;2023-02-08T09:31:28;1.87;63.03
70708;SHT30;58277;47.316;18.908;2023-02-08T09:33:53;1.89;62.55
70708;SHT30;58277;47.316;18.908;2023-02-08T09:36:17;2.02;63.05
70708;SHT30;58277;47.316;18.908;2023-02-08T09:38:41;2.05;62.51
70708;SHT30;58277;47.316;18.908;2023-02-08T09:46:23;2.30;61.67
70708;SHT30;58277;47.316;18.908;2023-02-08T09:48:49;2.23;61.86
70708;SHT30;58277;47.316;18.908;2023-02-08T09:51:42;2.23;61.71
70708;SHT30;58277;47.316;18.908;2023-02-08T09:54:19;2.24;61.21
70708;SHT30;58277;47.316;18.908;2023-02-08T09:56:43;2.31;60.84
70708;SHT30;58277;47.316;18.908;2023-02-08T09:59:34;2.20;60.97
70708;SHT30;58277;47.316;18.908;2023-02-08T10:02:24;2.38;60.82
70708;SHT30;58277;47.316;18.908;2023-02-08T10:07:17;2.52;60.68
70708;SHT30;58277;47.316;18.908;2023-02-08T10:09:42;2.66;60.38
70708;SHT30;58277;47.316;18.908;2023-02-08T10:20:55;2.78;59.42
70708;SHT30;58277;47.316;18.908;2023-02-08T10:31:54;2.42;59.80
70708;SHT30;58277;47.316;18.908;2023-02-08T10:36:44;2.62;59.70
70708;SHT30;58277;47.316;18.908;2023-02-08T10:39:17;2.74;59.90
70708;SHT30;58277;47.316;18.908;2023-02-08T10:41:40;2.79;59.20
70708;SHT30;58277;47.316;18.908;2023-02-08T10:44:29;2.78;58.99
70708;SHT30;58277;47.316;18.908;2023-02-08T10:47:16;2.78;58.74
70708;SHT30;58277;47.316;18.908;2023-02-08T10:52:12;3.02;58.40
70708;SHT30;58277;47.316;18.908;2023-02-08T10:54:35;3.15;58.48
70708;SHT30;58277;47.316;18.908;2023-02-08T10:57:00;2.91;58.53
70708;SHT30;58277;47.316;18.908;2023-02-08T11:02:27;3.00;57.66
70708;SHT30;58277;47.316;18.908;2023-02-08T11:05:06;3.00;57.86
70708;SHT30;58277;47.316;18.908;2023-02-08T11:07:30;3.09;57.29
70708;SHT30;58277;47.316;18.908;2023-02-08T11:09:53;3.16;57.76
70708;SHT30;58277;47.316;18.908;2023-02-08T11:12:21;3.20;57.74
70708;SHT30;58277;47.316;18.908;2023-02-08T11:14:49;3.23;57.69
70708;SHT30;58277;47.316;18.908;2023-02-08T11:17:30;3.27;56.97
70708;SHT30;58277;47.316;18.908;2023-02-08T11:19:55;3.26;57.03
70708;SHT30;58277;47.316;18.908;2023-02-08T11:22:22;3.16;57.13
70708;SHT30;58277;47.316;18.908;2023-02-08T11:24:56;3.19;57.61
70708;SHT30;58277;47.316;18.908;2023-02-08T11:27:33;3.22;57.34
70708;SHT30;58277;47.316;18.908;2023-02-08T11:32:38;3.30;56.77
70708;SHT30;58277;47.316;18.908;2023-02-08T11:35:22;3.37;55.36
70708;SHT30;58277;47.316;18.908;2023-02-08T11:37:50;3.34;55.06
70708;SHT30;58277;47.316;18.908;2023-02-08T11:40:23;3.60;55.29
70708;SHT30;58277;47.316;18.908;2023-02-08T11:42:47;3.51;54.93
70708;SHT30;58277;47.316;18.908;2023-02-08T11:45:22;3.64;54.62
70708;SHT30;58277;47.316;18.908;2023-02-08T11:47:46;3.58;53.77
70708;SHT30;58277;47.316;18.908;2023-02-08T11:50:24;3.65;54.55
70708;SHT30;58277;47.316;18.908;2023-02-08T11:52:56;3.63;55.41
70708;SHT30;58277;47.316;18.908;2023-02-08T11:55:25;3.78;54.93
70708;SHT30;58277;47.316;18.908;2023-02-08T11:57:58;3.79;54.01
70708;SHT30;58277;47.316;18.908;2023-02-08T12:00:24;3.65;53.23
70708;SHT30;58277;47.316;18.908;2023-02-08T12:02:49;3.64;53.09
70708;SHT30;58277;47.316;18.908;2023-02-08T12:05:15;3.68;51.66
70708;SHT30;58277;47.316;18.908;2023-02-08T12:08:03;3.67;51.93
70708;SHT30;58277;47.316;18.908;2023-02-08T12:21:26;3.93;50.27
70708;SHT30;58277;47.316;18.908;2023-02-08T12:35:46;3.84;49.78
70708;SHT30;58277;47.316;18.908;2023-02-08T12:51:48;3.78;51.98
70708;SHT30;58277;47.316;18.908;2023-02-08T12:54:13;3.86;51.09
70708;SHT30;58277;47.316;18.908;2023-02-08T12:56:41;3.95;51.38
70708;SHT30;58277;47.316;18.908;2023-02-08T12:59:26;4.07;51.39
70708;SHT30;58277;47.316;18.908;2023-02-08T13:01:52;4.19;50.51
70708;SHT30;58277;47.316;18.908;2023-02-08T13:04:55;3.99;48.39
70708;SHT30;58277;47.316;18.908;2023-02-08T13:07:12;3.91;48.78
70708;SHT30;58277;47.316;18.908;2023-02-08T13:12:34;3.77;48.18
70708;SHT30;58277;47.316;18.908;2023-02-08T13:15:06;3.71;48.62
70708;SHT30;58277;47.316;18.908;2023-02-08T13:17:44;3.55;49.29
70708;SHT30;58277;47.316;18.908;2023-02-08T13:22:57;3.61;49.07
70708;SHT30;58277;47.316;18.908;2023-02-08T13:25:33;3.63;49.68
70708;SHT30;58277;47.316;18.908;2023-02-08T13:28:05;3.89;50.69
70708;SHT30;58277;47.316;18.908;2023-02-08T13:30:32;4.19;48.96
70708;SHT30;58277;47.316;18.908;2023-02-08T13:33:05;4.22;50.06
70708;SHT30;58277;47.316;18.908;2023-02-08T13:35:34;4.34;49.93
70708;SHT30;58277;47.316;18.908;2023-02-08T13:38:05;4.40;49.62
70708;SHT30;58277;47.316;18.908;2023-02-08T13:40:31;4.12;49.25
70708;SHT30;58277;47.316;18.908;2023-02-08T13:43:07;3.96;49.40
70708;SHT30;58277;47.316;18.908;2023-02-08T13:45:52;3.84;49.27
70708;SHT30;58277;47.316;18.908;2023-02-08T13:48:16;3.79;49.45
70708;SHT30;58277;47.316;18.908;2023-02-08T13:50:49;3.77;49.93
70708;SHT30;58277;47.316;18.908;2023-02-08T13:53:15;3.64;50.53
70708;SHT30;58277;47.316;18.908;2023-02-08T14:03:40;3.89;50.60
70708;SHT30;58277;47.316;18.908;2023-02-08T14:11:11;3.84;49.82
70708;SHT30;58277;47.316;18.908;2023-02-08T14:13:45;3.77;50.54
70708;SHT30;58277;47.316;18.908;2023-02-08T14:16:42;3.65;51.40
70708;SHT30;58277;47.316;18.908;2023-02-08T14:19:23;3.53;52.54
70708;SHT30;58277;47.316;18.908;2023-02-08T14:24:29;3.24;52.97
70708;SHT30;58277;47.316;18.908;2023-02-08T14:27:15;3.20;53.23
70708;SHT30;58277;47.316;18.908;2023-02-08T14:29:42;3.26;52.97
70708;SHT30;58277;47.316;18.908;2023-02-08T14:32:06;3.20;52.80
70708;SHT30;58277;47.316;18.908;2023-02-08T14:34:32;3.16;53.44
70708;SHT30;58277;47.316;18.908;2023-02-08T14:39:44;2.96;53.33
70708;SHT30;58277;47.316;18.908;2023-02-08T14:42:11;2.92;53.28
70708;SHT30;58277;47.316;18.908;2023-02-08T14:47:49;2.78;53.57
70708;SHT30;58277;47.316;18.908;2023-02-08T14:52:37;2.68;54.42
70708;SHT30;58277;47.316;18.908;2023-02-08T14:55:29;2.58;54.31
70708;SHT30;58277;47.316;18.908;2023-02-08T14:57:57;2.55;54.28
70708;SHT30;58277;47.316;18.908;2023-02-08T15:00:27;2.55;54.61
70708;SHT30;58277;47.316;18.908;2023-02-08T15:02:52;2.47;54.69
70708;SHT30;58277;47.316;18.908;2023-02-08T15:05:30;2.34;55.44
70708;SHT30;58277;47.316;18.908;2023-02-08T15:07:57;2.40;55.32
70708;SHT30;58277;47.316;18.908;2023-02-08T15:10:22;2.31;55.26
70708;SHT30;58277;47.316;18.908;2023-02-08T15:12:49;2.40;54.58
70708;SHT30;58277;47.316;18.908;2023-02-08T15:15:34;2.31;55.21
70708;SHT30;58277;47.316;18.908;2023-02-08T15:17:59;2.33;55.74
70708;SHT30;58277;47.316;18.908;2023-02-08T15:20:27;2.27;55.67
70708;SHT30;58277;47.316;18.908;2023-02-08T15:23:05;2.24;55.69
70708;SHT30;58277;47.316;18.908;2023-02-08T15:25:31;2.21;55.84
70708;SHT30;58277;47.316;18.908;2023-02-08T15:30:39;2.21;55.61
70708;SHT30;58277;47.316;18.908;2023-02-08T15:33:08;2.17;55.98
70708;SHT30;58277;47.316;18.908;2023-02-08T15:35:33;2.13;56.51
70708;SHT30;58277;47.316;18.908;2023-02-08T15:37:56;1.96;56.93
70708;SHT30;58277;47.316;18.908;2023-02-08T15:40:30;1.87;57.62
70708;SHT30;58277;47.316;18.908;2023-02-08T15:43:01;1.79;57.91
70708;SHT30;58277;47.316;18.908;2023-02-08T15:45:26;1.72;58.21
70708;SHT30;58277;47.316;18.908;2023-02-08T15:47:52;1.62;58.46
70708;SHT30;58277;47.316;18.908;2023-02-08T15:50:17;1.55;58.79
70708;SHT30;58277;47.316;18.908;2023-02-08T15:52:41;1.54;58.41
70708;SHT30;58277;47.316;18.908;2023-02-08T15:55:07;1.51;58.15
70708;SHT30;58277;47.316;18.908;2023-02-08T15:57:40;1.55;58.06
70708;SHT30;58277;47.316;18.908;2023-02-08T16:00:19;1.58;57.40
70708;SHT30;58277;47.316;18.908;2023-02-08T16:02:48;1.58;57.63
70708;SHT30;58277;47.316;18.908;2023-02-08T16:05:31;1.54;57.72
70708;SHT30;58277;47.316;18.908;2023-02-08T16:07:54;1.56;57.56
70708;SHT30;58277;47.316;18.908;2023-02-08T16:12:55;1.45;58.07
70708;SHT30;58277;47.316;18.908;2023-02-08T16:18:00;1.34;58.47
70708;SHT30;58277;47.316;18.908;2023-02-08T16:20:32;1.37;58.49
70708;SHT30;58277;47.316;18.908;2023-02-08T16:24:18;1.34;58.47
70708;SHT30;58277;47.316;18.908;2023-02-08T16:26:27;1.26;58.96
70708;SHT30;58277;47.316;18.908;2023-02-08T16:28:54;1.22;59.14
70708;SHT30;58277;47.316;18.908;2023-02-08T16:31:20;1.16;59.48
70708;SHT30;58277;47.316;18.908;2023-02-08T16:33:44;1.08;59.70
70708;SHT30;58277;47.316;18.908;2023-02-08T16:36:17;1.07;59.96
70708;SHT30;58277;47.316;18.908;2023-02-08T16:44:36;0.90;60.51
70708;SHT30;58277;47.316;18.908;2023-02-08T16:46:59;0.87;60.65
70708;SHT30;58277;47.316;18.908;2023-02-08T16:49:22;0.89;60.54
70708;SHT30;58277;47.316;18.908;2023-02-08T16:51:45;0.86;60.67
70708;SHT30;58277;47.316;18.908;2023-02-08T16:54:11;0.80;60.81
70708;SHT30;58277;47.316;18.908;2023-02-08T16:56:36;0.79;61.07
70708;SHT30;58277;47.316;18.908;2023-02-08T16:58:59;0.75;61.43
70708;SHT30;58277;47.316;18.908;2023-02-08T17:01:22;0.76;61.59
70708;SHT30;58277;47.316;18.908;2023-02-08T17:03:47;0.73;62.05
70708;SHT30;58277;47.316;18.908;2023-02-08T17:06:41;0.70;62.24
70708;SHT30;58277;47.316;18.908;2023-02-08T17:09:04;0.68;62.56
70708;SHT30;58277;47.316;18.908;2023-02-08T17:11:28;0.65;62.48
70708;SHT30;58277;47.316;18.908;2023-02-08T17:13:51;0.65;62.58
70708;SHT30;58277;47.316;18.908;2023-02-08T17:16:19;0.66;62.77
70708;SHT30;58277;47.316;18.908;2023-02-08T17:18:42;0.65;62.68
70708;SHT30;58277;47.316;18.908;2023-02-08T17:21:05;0.62;62.87
70708;SHT30;58277;47.316;18.908;2023-02-08T17:23:29;0.59;63.02
70708;SHT30;58277;47.316;18.908;2023-02-08T17:25:52;0.57;63.16
70708;SHT30;58277;47.316;18.908;2023-02-08T17:28:18;0.52;63.33
70708;SHT30;58277;47.316;18.908;2023-02-08T17:30:43;0.47;63.30
70708;SHT30;58277;47.316;18.908;2023-02-08T17:33:07;0.40;63.78
70708;SHT30;58277;47.316;18.908;2023-02-08T17:35:34;0.31;63.77
70708;SHT30;58277;47.316;18.908;2023-02-08T17:37:59;0.38;63.62
70708;SHT30;58277;47.316;18.908;2023-02-08T17:40:25;0.34;63.83
70708;SHT30;58277;47.316;18.908;2023-02-08T17:42:50;0.37;63.91
70708;SHT30;58277;47.316;18.908;2023-02-08T17:45:13;0.34;63.76
70708;SHT30;58277;47.316;18.908;2023-02-08T17:47:37;0.27;63.91
70708;SHT30;58277;47.316;18.908;2023-02-08T17:50:04;0.24;63.90
70708;SHT30;58277;47.316;18.908;2023-02-08T17:52:27;0.28;63.75
70708;SHT30;58277;47.316;18.908;2023-02-08T17:54:50;0.20;63.99
70708;SHT30;58277;47.316;18.908;2023-02-08T17:57:12;0.24;63.22
70708;SHT30;58277;47.316;18.908;2023-02-08T17:59:38;0.20;63.55